Aeroporto :
LOGIN :

Iscrizione | Disclaimer

   EN    FR    IT 

 










Sommario :    VFR   VFR Marginale   IFR   IFR Intensivo   IFR Molto Intensivo
Visibilità : 
Base nubi : 
>= 8 km
>= 3000ft
5 / 8 km
1000 / 3000 ft
1500m / 5 km
500 / 1000 ft
800 / 1500m
200 / 500 ft
< 800m
< 200 ft
Simboli :   Temporali  Nebbia  Neve Forte  Precipitazioni Forti  Vento > 20 kt
SIGMETs :   Varie  Temporali  Ghiacco  Turbolenza  Onda orograficha  Ceneri Vulcaniche






- Altitudine del aeroporto : 288 ft
- Codice IATA : BZZ


EGVN - RAF Brize Norton

ULTIMO METAR :
  • 220550Z 22006KT 9999 SCT012 BKN022 12/10 Q1005 TEMPO BKN016 RMK GRN TEMPO WHT

METARs OBSOLETI :
  • 220520Z 22005KT 9999 SCT017 BKN038 12/09 Q1004 TEMPO SCT014 RMK WHT TEMPO GRN
  • 220450Z 23006KT 9999 SCT016 BKN030 12/09 Q1004 TEMPO 6000 -RA RMK WHT TEMPO WHT
  • 220420Z 22008KT 9999 BKN016 BKN028 12/09 Q1004 TEMPO 6000 -DZ BKN012 RMK WHT TEMPO GRN
  • 220350Z 22007KT 9999 FEW012 BKN022 12/10 Q1004 TEMPO 6000 -DZ SCT012 RMK WHT TEMPO GRN
  • 220320Z 21006KT 9999 SCT012 BKN048 12/10 Q1004 TEMPO BKN016 RMK GRN TEMPO WHT

TAF TAF EGVN
Valido dal 22 a 06 ore il 23 a 06 ore UTC


220453Z 2206/2306 22009KT 9999 BKN018
TEMPO 2206/2210 BKN010
PROB40
TEMPO 2206/2208 4000 -DZ
BECMG 2210/2212 FEW018
TEMPO 2220/2306 BKN016
PROB30
TEMPO 2223/2306 6000 SHRA BKN007



MetMap, La meteo Aeronautica in un colpo d'occhio ! - Copyright ORBIFLY Dicembre 2007 - Disclaimer

ORBIFLY MET'MAP TEAM :

Programmazione e sviluppo : Alexandra Zaïnal
Concezione : Baudouin d'Aumeries
Aiuto per la programmazione : Marc-Olivier Méhu
Supporto tecnico e logistico : Manuel Goepfert
Aiuto per la traduzione : Arnaldo La Scala

Contatto : metmap@orbifly.com




FONTI E CREDITI :

   NOAA